createdAt,value
2022-08-09T00:01:55.326Z,78.09
2022-08-09T00:06:19.300Z,78.03
2022-08-09T00:10:24.384Z,78.33
2022-08-09T00:14:37.827Z,78.27
2022-08-09T00:18:40.187Z,78.07
2022-08-09T00:22:44.871Z,77.97
2022-08-09T00:26:48.962Z,77.97
2022-08-09T00:30:51.986Z,77.81
2022-08-09T00:34:53.654Z,78.00
2022-08-09T00:38:55.478Z,78.34
2022-08-09T00:44:10.493Z,78.44
2022-08-09T00:47:18.589Z,78.74
2022-08-09T00:51:21.625Z,78.94
2022-08-09T00:56:03.766Z,79.48
2022-08-09T00:59:52.305Z,79.97
2022-08-09T01:04:02.419Z,80.41
2022-08-09T01:08:36.923Z,80.51
2022-08-09T01:13:16.877Z,80.51
2022-08-09T01:17:24.086Z,81.31
2022-08-09T01:22:12.377Z,81.41
2022-08-09T01:26:55.746Z,81.45
2022-08-09T01:31:00.945Z,81.35
2022-08-09T01:35:28.471Z,81.35
2022-08-09T01:39:39.317Z,81.45
2022-08-09T01:43:50.471Z,81.45
2022-08-09T01:47:55.708Z,81.59
2022-08-09T01:52:07.480Z,81.89
2022-08-09T01:56:11.214Z,81.89
2022-08-09T02:00:19.450Z,81.99
2022-08-09T02:04:45.375Z,82.29
2022-08-09T02:08:58.089Z,82.73
2022-08-09T02:13:05.190Z,82.93
2022-08-09T02:17:15.346Z,83.13
2022-08-09T02:21:39.560Z,83.37
2022-08-09T02:25:49.505Z,83.27
2022-08-09T02:29:57.252Z,83.67
2022-08-09T02:34:25.747Z,83.97
2022-08-09T02:38:50.031Z,84.27
2022-08-09T02:42:55.400Z,84.51
2022-08-09T02:47:05.529Z,85.01
2022-08-09T02:51:11.267Z,85.35
2022-08-09T02:55:20.599Z,85.46
2022-08-09T02:59:26.596Z,85.85
2022-08-09T03:04:12.592Z,86.16
2022-08-09T03:08:03.222Z,86.50
2022-08-09T03:12:11.058Z,86.69
2022-08-09T03:16:19.133Z,86.69
2022-08-09T03:20:22.005Z,86.69
2022-08-09T03:24:31.500Z,86.69
2022-08-09T03:28:49.493Z,86.50
2022-08-09T03:32:58.446Z,86.50
2022-08-09T03:37:10.550Z,86.60
2022-08-09T03:41:21.772Z,86.80
2022-08-09T03:46:05.126Z,86.60
2022-08-09T03:49:58.372Z,86.80
2022-08-09T03:54:00.875Z,86.96
2022-08-09T03:58:09.969Z,87.26
2022-08-09T04:02:19.975Z,87.36
2022-08-09T04:06:28.614Z,87.55
2022-08-09T04:10:31.368Z,87.90
2022-08-09T04:14:54.086Z,88.10
2022-08-09T04:18:54.818Z,88.20
2022-08-09T04:22:56.476Z,88.30
2022-08-09T04:27:00.784Z,88.50
2022-08-09T04:31:08.000Z,88.50
2022-08-09T04:35:13.187Z,89.00
2022-08-09T04:39:17.070Z,89.30
2022-08-09T04:43:19.249Z,89.65
2022-08-09T04:47:20.832Z,89.75
2022-08-09T04:51:22.674Z,89.65
2022-08-09T04:55:24.537Z,89.65
2022-08-09T04:59:26.332Z,89.45
2022-08-09T05:03:42.806Z,89.30
2022-08-09T05:07:46.511Z,89.11
2022-08-09T05:11:48.419Z,89.30
2022-08-09T05:15:56.386Z,89.30
2022-08-09T05:19:58.590Z,89.20
2022-08-09T05:24:02.154Z,89.00
2022-08-09T05:28:05.845Z,89.30
2022-08-09T05:32:08.344Z,90.41
2022-08-09T05:36:11.963Z,90.00
2022-08-09T05:40:18.603Z,89.46
2022-08-09T05:44:22.200Z,89.26
2022-08-09T05:48:33.011Z,89.36
2022-08-09T05:52:36.190Z,89.46
2022-08-09T05:56:55.263Z,89.76
2022-08-09T06:00:58.717Z,90.16
2022-08-09T06:05:00.449Z,90.12
2022-08-09T06:09:02.521Z,90.16
2022-08-09T06:13:18.641Z,90.16
2022-08-09T06:17:22.984Z,90.52
2022-08-09T06:21:24.552Z,90.12
2022-08-09T06:25:26.281Z,89.32
2022-08-09T06:29:28.060Z,89.42
2022-08-09T06:33:41.120Z,89.18
2022-08-09T06:37:52.778Z,89.18
2022-08-09T06:42:08.143Z,89.37
2022-08-09T06:46:13.180Z,88.68
2022-08-09T06:50:34.586Z,88.33
2022-08-09T06:54:37.134Z,88.03
2022-08-09T07:00:51.713Z,87.49
2022-08-09T07:03:06.045Z,85.69
2022-08-09T07:07:11.958Z,84.35
2022-08-09T07:11:17.630Z,85.35
2022-08-09T07:16:39.460Z,85.21
2022-08-09T07:19:48.064Z,84.31
2022-08-09T07:23:56.634Z,84.77
2022-08-09T07:28:00.074Z,85.27
2022-08-09T07:32:07.280Z,84.43
2022-08-09T07:36:09.430Z,84.53
2022-08-09T07:40:18.833Z,84.49
2022-08-09T07:44:32.856Z,83.49
2022-08-09T07:48:43.629Z,83.15
2022-08-09T07:52:46.020Z,83.45
2022-08-09T07:56:50.132Z,82.51
2022-08-09T08:00:58.885Z,82.42
2022-08-09T08:05:18.001Z,81.98
2022-08-09T08:09:39.738Z,79.99
2022-08-09T08:13:45.162Z,80.84
2022-08-09T08:17:58.836Z,79.94
2022-08-09T08:22:00.532Z,78.61
2022-08-09T08:26:06.498Z,78.67
2022-08-09T08:30:11.619Z,78.28
2022-08-09T08:34:13.975Z,77.25
2022-08-09T08:38:15.786Z,77.64
2022-08-09T08:42:17.463Z,77.64
2022-08-09T08:46:33.564Z,77.61
2022-08-09T08:50:37.559Z,77.47
2022-08-09T08:54:40.281Z,77.27
2022-08-09T08:58:44.436Z,76.25
2022-08-09T09:02:52.593Z,75.45
2022-08-09T09:07:00.731Z,76.34
2022-08-09T09:11:04.437Z,76.21
2022-08-09T09:15:07.684Z,76.10
2022-08-09T09:19:37.766Z,75.67
2022-08-09T09:23:49.583Z,74.98
2022-08-09T09:28:03.827Z,74.95
2022-08-09T09:32:15.698Z,74.61
2022-08-09T09:36:20.457Z,74.21
2022-08-09T09:40:41.059Z,73.88
2022-08-09T09:45:07.000Z,73.58
2022-08-09T09:49:18.671Z,73.68
2022-08-09T09:53:43.893Z,72.56
2022-08-09T09:58:02.902Z,71.97
2022-08-09T10:02:15.358Z,72.42
2022-08-09T10:06:17.993Z,71.53
2022-08-09T10:10:29.968Z,71.60
2022-08-09T10:14:33.949Z,70.38
2022-08-09T10:18:35.879Z,70.04
2022-08-09T10:22:39.151Z,70.04
2022-08-09T10:26:41.686Z,70.31
2022-08-09T10:32:21.011Z,70.08
2022-08-09T10:35:10.401Z,68.76
2022-08-09T10:39:19.454Z,69.06
2022-08-09T10:43:21.541Z,68.24
2022-08-09T10:48:16.615Z,67.12
2022-08-09T10:52:20.552Z,67.41
2022-08-09T10:56:40.934Z,67.29
2022-08-09T11:03:01.765Z,66.20
2022-08-09T11:05:25.499Z,66.56
2022-08-09T11:09:37.953Z,65.67
2022-08-09T11:13:50.001Z,65.67
2022-08-09T11:18:02.687Z,64.89
2022-08-09T11:22:18.663Z,66.14
2022-08-09T11:26:38.938Z,63.48
2022-08-09T11:30:47.966Z,62.76
2022-08-09T11:34:52.151Z,63.02
2022-08-09T11:39:01.717Z,62.14
2022-08-09T11:43:03.497Z,62.53
2022-08-09T11:47:05.283Z,62.90
2022-08-09T11:52:49.239Z,61.49
2022-08-09T11:55:51.979Z,61.19
2022-08-09T11:59:55.756Z,61.78
2022-08-09T12:04:23.855Z,60.97
2022-08-09T12:08:31.071Z,60.77
2022-08-09T12:12:49.047Z,60.74
2022-08-09T12:16:56.392Z,60.25
2022-08-09T12:21:02.696Z,60.55
2022-08-09T12:25:15.897Z,60.13
2022-08-09T12:29:33.915Z,59.53
2022-08-09T12:33:59.424Z,59.73
2022-08-09T12:38:29.454Z,59.70
2022-08-09T12:42:44.422Z,59.67
2022-08-09T12:46:50.069Z,58.69
2022-08-09T12:50:52.610Z,58.67
2022-08-09T12:56:10.745Z,58.47
2022-08-09T12:59:23.512Z,58.34
2022-08-09T13:03:52.779Z,59.00
2022-08-09T13:08:21.242Z,57.53
2022-08-09T13:13:09.438Z,57.31
2022-08-09T13:17:21.808Z,57.21
2022-08-09T13:22:45.539Z,56.89
2022-08-09T13:26:00.290Z,56.89
2022-08-09T13:30:48.937Z,56.27
2022-08-09T13:34:40.864Z,56.05
2022-08-09T13:38:57.752Z,55.76
2022-08-09T13:43:04.003Z,56.45
2022-08-09T13:47:29.131Z,57.03
2022-08-09T13:51:34.369Z,56.12
2022-08-09T13:55:36.935Z,54.93
2022-08-09T13:59:42.181Z,54.44
2022-08-09T14:04:04.879Z,54.21
2022-08-09T14:08:06.454Z,55.19
2022-08-09T14:12:08.794Z,54.97
2022-08-09T14:16:20.282Z,53.99
2022-08-09T14:20:30.541Z,53.70
2022-08-09T14:24:33.864Z,54.41
2022-08-09T14:28:35.613Z,53.89
2022-08-09T14:32:37.776Z,53.28
2022-08-09T14:36:42.794Z,53.28
2022-08-09T14:41:02.309Z,53.60
2022-08-09T14:46:58.131Z,52.63
2022-08-09T14:49:34.542Z,53.11
2022-08-09T14:53:46.779Z,52.99
2022-08-09T14:57:50.181Z,53.87
2022-08-09T15:01:51.772Z,53.38
2022-08-09T15:05:55.625Z,53.67
2022-08-09T15:10:07.268Z,52.48
2022-08-09T15:14:13.654Z,52.12
2022-08-09T15:18:15.386Z,52.58
2022-08-09T15:22:17.840Z,52.06
2022-08-09T15:26:31.428Z,52.36
2022-08-09T15:30:57.390Z,52.45
2022-08-09T15:34:56.301Z,52.75
2022-08-09T15:39:00.186Z,52.36
2022-08-09T15:43:02.079Z,52.48
2022-08-09T15:47:05.278Z,52.06
2022-08-09T15:51:11.597Z,52.06
2022-08-09T15:55:29.980Z,52.28
2022-08-09T15:59:37.502Z,51.97
2022-08-09T16:03:41.643Z,51.61
2022-08-09T16:07:45.816Z,51.80
2022-08-09T16:11:57.333Z,52.77
2022-08-09T16:16:09.957Z,52.50
2022-08-09T16:20:14.851Z,52.09
2022-08-09T16:24:33.732Z,51.90
2022-08-09T16:28:35.850Z,52.89
2022-08-09T16:32:56.934Z,52.50
2022-08-09T16:36:59.891Z,52.99
2022-08-09T16:41:03.890Z,52.99
2022-08-09T16:45:06.967Z,54.09
2022-08-09T16:49:16.832Z,53.11
2022-08-09T16:53:34.233Z,53.73
2022-08-09T16:58:08.718Z,53.73
2022-08-09T17:01:58.057Z,53.34
2022-08-09T17:06:08.144Z,53.27
2022-08-09T17:10:21.952Z,53.39
2022-08-09T17:14:28.090Z,54.20
2022-08-09T17:18:30.263Z,54.13
2022-08-09T17:22:32.791Z,54.22
2022-08-09T17:26:38.427Z,54.44
2022-08-09T17:30:40.333Z,55.26
2022-08-09T17:35:02.009Z,55.65
2022-08-09T17:39:11.142Z,55.67
2022-08-09T17:43:33.699Z,56.31
2022-08-09T17:47:49.351Z,56.63
2022-08-09T17:51:52.325Z,57.15
2022-08-09T17:56:00.015Z,57.25
2022-08-09T18:00:07.451Z,57.77
2022-08-09T18:04:13.637Z,58.09
2022-08-09T18:08:16.208Z,58.12
2022-08-09T18:12:20.217Z,57.92
2022-08-09T18:16:29.173Z,58.34
2022-08-09T18:20:56.592Z,58.74
2022-08-09T18:24:52.955Z,59.06
2022-08-09T18:30:42.422Z,59.06
2022-08-09T18:33:16.089Z,59.48
2022-08-09T18:37:46.894Z,59.78
2022-08-09T18:41:53.130Z,60.10
2022-08-09T18:46:50.533Z,60.50
2022-08-09T18:50:16.914Z,60.92
2022-08-09T18:54:28.474Z,61.11
2022-08-09T18:58:32.086Z,61.44
2022-08-09T19:02:34.938Z,61.54
2022-08-09T19:06:38.693Z,61.77
2022-08-09T19:10:40.464Z,61.87
2022-08-09T19:14:43.449Z,62.16
2022-08-09T19:18:45.774Z,62.19
2022-08-09T19:22:54.196Z,62.68
2022-08-09T19:26:56.114Z,62.68
2022-08-09T19:30:57.687Z,63.21
2022-08-09T19:34:59.314Z,63.50
2022-08-09T19:39:01.099Z,63.70
2022-08-09T19:43:10.253Z,63.63
2022-08-09T19:47:23.239Z,63.93
2022-08-09T19:51:25.937Z,64.42
2022-08-09T19:56:02.746Z,64.62
2022-08-09T19:59:59.961Z,64.36
2022-08-09T20:04:22.258Z,64.95
2022-08-09T20:08:35.509Z,65.73
2022-08-09T20:12:39.799Z,65.73
2022-08-09T20:16:49.964Z,66.26
2022-08-09T20:20:56.972Z,66.46
2022-08-09T20:24:58.565Z,66.56
2022-08-09T20:29:10.329Z,67.08
2022-08-09T20:33:20.719Z,67.18
2022-08-09T20:37:22.945Z,67.28
2022-08-09T20:41:34.712Z,67.58
2022-08-09T20:46:00.110Z,68.27
2022-08-09T20:50:01.108Z,68.70
2022-08-09T20:54:03.605Z,70.28
2022-08-09T20:58:19.698Z,70.87
2022-08-09T21:02:21.687Z,71.11
2022-08-09T21:06:24.964Z,71.50
2022-08-09T21:10:30.886Z,71.30
2022-08-09T21:14:40.529Z,71.11
2022-08-09T21:20:05.046Z,70.74
2022-08-09T21:23:08.891Z,70.94
2022-08-09T21:27:51.711Z,71.63
2022-08-09T21:31:49.437Z,72.22
2022-08-09T21:35:52.547Z,72.66
2022-08-09T21:39:54.509Z,73.05
2022-08-09T21:43:58.168Z,73.05
2022-08-09T21:48:00.365Z,73.28
2022-08-09T21:52:01.881Z,72.60
2022-08-09T21:56:03.689Z,71.90
2022-08-09T22:00:12.941Z,71.64
2022-08-09T22:04:14.507Z,71.28
2022-08-09T22:08:25.481Z,70.78
2022-08-09T22:12:30.798Z,70.78
2022-08-09T22:16:37.462Z,71.17
2022-08-09T22:20:40.029Z,71.08
2022-08-09T22:26:04.542Z,71.37
2022-08-09T22:29:07.004Z,71.97
2022-08-09T22:33:09.922Z,72.07
2022-08-09T22:37:12.443Z,72.30
2022-08-09T22:41:15.471Z,72.70
2022-08-09T22:48:14.813Z,72.70
2022-08-09T22:49:40.407Z,73.00
2022-08-09T22:53:58.523Z,73.10
2022-08-09T22:58:04.793Z,73.00
2022-08-09T23:02:06.699Z,73.53
2022-08-09T23:06:08.260Z,73.82
2022-08-09T23:10:16.076Z,74.02
2022-08-09T23:14:17.746Z,73.93
2022-08-09T23:18:40.631Z,73.46
2022-08-09T23:22:42.312Z,73.16
2022-08-09T23:26:43.923Z,72.47
2022-08-09T23:30:52.029Z,71.97
2022-08-09T23:34:53.825Z,71.61
2022-08-09T23:38:55.601Z,71.22
2022-08-09T23:42:57.160Z,70.92
2022-08-09T23:46:58.789Z,70.32
2022-08-09T23:51:00.338Z,69.82
2022-08-09T23:55:01.992Z,69.43
2022-08-09T23:59:05.724Z,69.32
